sensor_id;sensor_type;location;lat;lon;timestamp;temperature;humidity
82991;DHT22;72806;50.832;4.864;2023-10-08T00:02:10;17.60;66.70
82991;DHT22;72806;50.832;4.864;2023-10-08T00:04:40;17.60;66.60
82991;DHT22;72806;50.832;4.864;2023-10-08T00:07:09;17.70;66.40
82991;DHT22;72806;50.832;4.864;2023-10-08T00:09:37;17.70;66.20
82991;DHT22;72806;50.832;4.864;2023-10-08T00:12:05;17.70;66.00
82991;DHT22;72806;50.832;4.864;2023-10-08T00:14:32;17.70;65.90
82991;DHT22;72806;50.832;4.864;2023-10-08T00:17:11;17.70;65.80
82991;DHT22;72806;50.832;4.864;2023-10-08T00:19:38;17.70;65.80
82991;DHT22;72806;50.832;4.864;2023-10-08T00:22:05;17.70;65.60
82991;DHT22;72806;50.832;4.864;2023-10-08T00:24:33;17.70;65.50
82991;DHT22;72806;50.832;4.864;2023-10-08T00:27:00;17.70;65.40
82991;DHT22;72806;50.832;4.864;2023-10-08T00:29:30;17.60;65.30
82991;DHT22;72806;50.832;4.864;2023-10-08T00:31:57;17.60;65.20
82991;DHT22;72806;50.832;4.864;2023-10-08T00:34:25;17.60;65.10
82991;DHT22;72806;50.832;4.864;2023-10-08T00:36:53;17.60;64.90
82991;DHT22;72806;50.832;4.864;2023-10-08T00:39:21;17.60;65.60
82991;DHT22;72806;50.832;4.864;2023-10-08T00:41:53;17.50;64.90
82991;DHT22;72806;50.832;4.864;2023-10-08T00:44:24;17.50;64.90
82991;DHT22;72806;50.832;4.864;2023-10-08T00:46:56;17.40;65.00
82991;DHT22;72806;50.832;4.864;2023-10-08T00:49:28;17.40;64.90
82991;DHT22;72806;50.832;4.864;2023-10-08T00:52:14;17.40;65.00
82991;DHT22;72806;50.832;4.864;2023-10-08T00:54:56;17.40;65.00
82991;DHT22;72806;50.832;4.864;2023-10-08T00:57:34;17.30;64.70
82991;DHT22;72806;50.832;4.864;2023-10-08T01:00:04;17.30;64.80
82991;DHT22;72806;50.832;4.864;2023-10-08T01:02:40;17.30;64.80
82991;DHT22;72806;50.832;4.864;2023-10-08T01:05:14;17.30;64.80
82991;DHT22;72806;50.832;4.864;2023-10-08T01:07:46;17.30;64.80
82991;DHT22;72806;50.832;4.864;2023-10-08T01:10:16;17.20;65.60
82991;DHT22;72806;50.832;4.864;2023-10-08T01:12:46;17.20;65.10
82991;DHT22;72806;50.832;4.864;2023-10-08T01:15:29;17.10;65.10
82991;DHT22;72806;50.832;4.864;2023-10-08T01:18:01;17.10;65.30
82991;DHT22;72806;50.832;4.864;2023-10-08T01:20:32;17.00;65.50
82991;DHT22;72806;50.832;4.864;2023-10-08T01:23:07;16.90;65.70
82991;DHT22;72806;50.832;4.864;2023-10-08T01:25:39;16.90;66.00
82991;DHT22;72806;50.832;4.864;2023-10-08T01:28:07;16.90;66.10
82991;DHT22;72806;50.832;4.864;2023-10-08T01:30:43;16.80;66.30
82991;DHT22;72806;50.832;4.864;2023-10-08T01:33:12;16.70;66.40
82991;DHT22;72806;50.832;4.864;2023-10-08T01:35:41;16.70;66.80
82991;DHT22;72806;50.832;4.864;2023-10-08T01:38:09;16.60;67.00
82991;DHT22;72806;50.832;4.864;2023-10-08T01:40:40;16.50;67.80
82991;DHT22;72806;50.832;4.864;2023-10-08T01:43:07;16.50;67.50
82991;DHT22;72806;50.832;4.864;2023-10-08T01:45:36;16.50;67.60
82991;DHT22;72806;50.832;4.864;2023-10-08T01:48:07;16.40;67.80
82991;DHT22;72806;50.832;4.864;2023-10-08T01:50:36;16.40;68.00
82991;DHT22;72806;50.832;4.864;2023-10-08T01:53:04;16.40;68.20
82991;DHT22;72806;50.832;4.864;2023-10-08T01:55:35;16.40;68.40
82991;DHT22;72806;50.832;4.864;2023-10-08T01:58:15;16.40;68.60
82991;DHT22;72806;50.832;4.864;2023-10-08T02:00:43;16.40;68.80
82991;DHT22;72806;50.832;4.864;2023-10-08T02:03:12;16.40;69.00
82991;DHT22;72806;50.832;4.864;2023-10-08T02:05:41;16.30;69.10
82991;DHT22;72806;50.832;4.864;2023-10-08T02:08:09;16.30;69.30
82991;DHT22;72806;50.832;4.864;2023-10-08T02:10:39;16.30;69.50
82991;DHT22;72806;50.832;4.864;2023-10-08T02:13:07;16.30;69.80
82991;DHT22;72806;50.832;4.864;2023-10-08T02:15:35;16.30;70.00
82991;DHT22;72806;50.832;4.864;2023-10-08T02:18:05;16.30;70.20
82991;DHT22;72806;50.832;4.864;2023-10-08T02:20:32;16.30;70.40
82991;DHT22;72806;50.832;4.864;2023-10-08T02:22:59;16.30;70.50
82991;DHT22;72806;50.832;4.864;2023-10-08T02:25:26;16.30;70.60
82991;DHT22;72806;50.832;4.864;2023-10-08T02:27:56;16.40;70.60
82991;DHT22;72806;50.832;4.864;2023-10-08T02:30:23;16.40;70.60
82991;DHT22;72806;50.832;4.864;2023-10-08T02:32:50;16.40;70.80
82991;DHT22;72806;50.832;4.864;2023-10-08T02:35:18;16.30;70.90
82991;DHT22;72806;50.832;4.864;2023-10-08T02:37:45;16.30;71.00
82991;DHT22;72806;50.832;4.864;2023-10-08T02:40:12;16.30;71.10
82991;DHT22;72806;50.832;4.864;2023-10-08T02:42:51;16.40;71.30
82991;DHT22;72806;50.832;4.864;2023-10-08T02:45:25;16.40;71.40
82991;DHT22;72806;50.832;4.864;2023-10-08T02:47:53;16.30;71.60
82991;DHT22;72806;50.832;4.864;2023-10-08T02:50:21;16.30;71.80
82991;DHT22;72806;50.832;4.864;2023-10-08T02:52:48;16.40;71.90
82991;DHT22;72806;50.832;4.864;2023-10-08T02:55:16;16.40;72.00
82991;DHT22;72806;50.832;4.864;2023-10-08T02:57:59;16.40;72.00
82991;DHT22;72806;50.832;4.864;2023-10-08T03:00:29;16.50;71.90
82991;DHT22;72806;50.832;4.864;2023-10-08T03:02:56;16.50;71.80
82991;DHT22;72806;50.832;4.864;2023-10-08T03:05:23;16.60;72.00
82991;DHT22;72806;50.832;4.864;2023-10-08T03:07:55;16.60;72.00
82991;DHT22;72806;50.832;4.864;2023-10-08T03:10:23;16.60;72.20
82991;DHT22;72806;50.832;4.864;2023-10-08T03:12:57;16.60;72.30
82991;DHT22;72806;50.832;4.864;2023-10-08T03:15:31;16.50;72.40
82991;DHT22;72806;50.832;4.864;2023-10-08T03:18:05;16.40;72.80
82991;DHT22;72806;50.832;4.864;2023-10-08T03:20:35;16.40;73.10
82991;DHT22;72806;50.832;4.864;2023-10-08T03:23:09;16.30;73.40
82991;DHT22;72806;50.832;4.864;2023-10-08T03:25:50;16.40;73.60
82991;DHT22;72806;50.832;4.864;2023-10-08T03:28:22;16.40;73.70
82991;DHT22;72806;50.832;4.864;2023-10-08T03:30:54;16.40;73.80
82991;DHT22;72806;50.832;4.864;2023-10-08T03:33:30;16.30;73.90
82991;DHT22;72806;50.832;4.864;2023-10-08T03:36:00;16.30;74.30
82991;DHT22;72806;50.832;4.864;2023-10-08T03:38:35;16.30;74.50
82991;DHT22;72806;50.832;4.864;2023-10-08T03:41:16;16.30;74.60
82991;DHT22;72806;50.832;4.864;2023-10-08T03:43:43;16.30;74.80
82991;DHT22;72806;50.832;4.864;2023-10-08T03:46:20;16.30;74.90
82991;DHT22;72806;50.832;4.864;2023-10-08T03:48:50;16.30;75.00
82991;DHT22;72806;50.832;4.864;2023-10-08T03:51:18;16.30;75.00
82991;DHT22;72806;50.832;4.864;2023-10-08T03:53:47;16.30;75.00
82991;DHT22;72806;50.832;4.864;2023-10-08T03:56:41;16.40;75.20
82991;DHT22;72806;50.832;4.864;2023-10-08T03:59:12;16.40;75.30
82991;DHT22;72806;50.832;4.864;2023-10-08T04:01:41;16.40;75.40
82991;DHT22;72806;50.832;4.864;2023-10-08T04:04:09;16.30;75.50
82991;DHT22;72806;50.832;4.864;2023-10-08T04:06:40;16.30;75.60
82991;DHT22;72806;50.832;4.864;2023-10-08T04:09:14;16.30;75.80
82991;DHT22;72806;50.832;4.864;2023-10-08T04:11:51;16.30;75.80
82991;DHT22;72806;50.832;4.864;2023-10-08T04:14:18;16.40;75.80
82991;DHT22;72806;50.832;4.864;2023-10-08T04:16:47;16.40;75.80
82991;DHT22;72806;50.832;4.864;2023-10-08T04:19:17;16.50;75.80
82991;DHT22;72806;50.832;4.864;2023-10-08T04:21:45;16.50;75.80
82991;DHT22;72806;50.832;4.864;2023-10-08T04:24:20;16.50;75.70
82991;DHT22;72806;50.832;4.864;2023-10-08T04:26:54;16.50;75.60
82991;DHT22;72806;50.832;4.864;2023-10-08T04:29:23;16.50;75.60
82991;DHT22;72806;50.832;4.864;2023-10-08T04:31:52;16.60;75.70
82991;DHT22;72806;50.832;4.864;2023-10-08T04:34:33;16.50;75.60
82991;DHT22;72806;50.832;4.864;2023-10-08T04:37:00;16.60;75.80
82991;DHT22;72806;50.832;4.864;2023-10-08T04:39:29;16.60;75.70
82991;DHT22;72806;50.832;4.864;2023-10-08T04:41:59;16.60;75.70
82991;DHT22;72806;50.832;4.864;2023-10-08T04:44:32;16.60;75.60
82991;DHT22;72806;50.832;4.864;2023-10-08T04:47:01;16.60;75.60
82991;DHT22;72806;50.832;4.864;2023-10-08T04:49:32;16.60;75.70
82991;DHT22;72806;50.832;4.864;2023-10-08T04:52:10;16.60;75.70
82991;DHT22;72806;50.832;4.864;2023-10-08T04:54:41;16.60;75.70
82991;DHT22;72806;50.832;4.864;2023-10-08T04:57:17;16.60;75.70
82991;DHT22;72806;50.832;4.864;2023-10-08T04:59:47;16.60;75.80
82991;DHT22;72806;50.832;4.864;2023-10-08T05:02:17;16.50;75.90
82991;DHT22;72806;50.832;4.864;2023-10-08T05:04:59;16.50;76.00
82991;DHT22;72806;50.832;4.864;2023-10-08T05:07:44;16.40;76.10
82991;DHT22;72806;50.832;4.864;2023-10-08T05:10:27;16.30;76.20
82991;DHT22;72806;50.832;4.864;2023-10-08T05:13:26;16.20;76.30
82991;DHT22;72806;50.832;4.864;2023-10-08T05:15:58;16.10;76.50
82991;DHT22;72806;50.832;4.864;2023-10-08T05:18:38;16.10;76.90
82991;DHT22;72806;50.832;4.864;2023-10-08T05:21:19;16.00;77.00
82991;DHT22;72806;50.832;4.864;2023-10-08T05:23:53;16.00;77.20
82991;DHT22;72806;50.832;4.864;2023-10-08T05:26:35;15.90;77.40
82991;DHT22;72806;50.832;4.864;2023-10-08T05:29:10;15.90;77.60
82991;DHT22;72806;50.832;4.864;2023-10-08T05:31:54;15.80;77.80
82991;DHT22;72806;50.832;4.864;2023-10-08T05:34:36;15.70;78.00
82991;DHT22;72806;50.832;4.864;2023-10-08T05:37:16;15.70;78.20
82991;DHT22;72806;50.832;4.864;2023-10-08T05:39:59;15.70;78.30
82991;DHT22;72806;50.832;4.864;2023-10-08T05:42:38;15.70;78.60
82991;DHT22;72806;50.832;4.864;2023-10-08T05:45:12;15.70;78.80
82991;DHT22;72806;50.832;4.864;2023-10-08T05:47:56;15.70;79.60
82991;DHT22;72806;50.832;4.864;2023-10-08T05:50:41;15.70;78.90
82991;DHT22;72806;50.832;4.864;2023-10-08T05:53:21;15.70;78.90
82991;DHT22;72806;50.832;4.864;2023-10-08T05:56:08;15.70;78.90
82991;DHT22;72806;50.832;4.864;2023-10-08T05:58:54;15.80;78.90
82991;DHT22;72806;50.832;4.864;2023-10-08T06:01:26;15.80;78.90
82991;DHT22;72806;50.832;4.864;2023-10-08T06:04:05;15.80;79.20
82991;DHT22;72806;50.832;4.864;2023-10-08T06:06:48;15.70;79.40
82991;DHT22;72806;50.832;4.864;2023-10-08T06:09:24;15.70;79.80
82991;DHT22;72806;50.832;4.864;2023-10-08T06:12:01;15.70;80.00
82991;DHT22;72806;50.832;4.864;2023-10-08T06:14:45;15.80;80.20
82991;DHT22;72806;50.832;4.864;2023-10-08T06:17:29;15.80;80.40
82991;DHT22;72806;50.832;4.864;2023-10-08T06:20:29;15.80;80.60
82991;DHT22;72806;50.832;4.864;2023-10-08T06:22:58;15.90;80.80
82991;DHT22;72806;50.832;4.864;2023-10-08T06:25:29;15.90;81.00
82991;DHT22;72806;50.832;4.864;2023-10-08T06:27:56;16.00;81.20
82991;DHT22;72806;50.832;4.864;2023-10-08T06:30:24;16.10;81.30
82991;DHT22;72806;50.832;4.864;2023-10-08T06:32:56;16.20;81.50
82991;DHT22;72806;50.832;4.864;2023-10-08T06:35:23;16.30;81.50
82991;DHT22;72806;50.832;4.864;2023-10-08T06:37:53;16.40;81.50
82991;DHT22;72806;50.832;4.864;2023-10-08T06:40:27;16.50;81.50
82991;DHT22;72806;50.832;4.864;2023-10-08T06:43:10;16.50;81.50
82991;DHT22;72806;50.832;4.864;2023-10-08T06:45:48;16.60;81.70
82991;DHT22;72806;50.832;4.864;2023-10-08T06:48:18;16.60;81.80
82991;DHT22;72806;50.832;4.864;2023-10-08T06:50:48;16.70;82.00
82991;DHT22;72806;50.832;4.864;2023-10-08T06:53:15;16.80;82.00
82991;DHT22;72806;50.832;4.864;2023-10-08T06:55:47;16.80;82.10
82991;DHT22;72806;50.832;4.864;2023-10-08T06:58:20;16.90;82.10
82991;DHT22;72806;50.832;4.864;2023-10-08T07:00:48;17.00;82.20
82991;DHT22;72806;50.832;4.864;2023-10-08T07:03:16;17.00;82.10
82991;DHT22;72806;50.832;4.864;2023-10-08T07:05:45;17.10;82.00
82991;DHT22;72806;50.832;4.864;2023-10-08T07:08:21;17.20;82.10
82991;DHT22;72806;50.832;4.864;2023-10-08T07:10:50;17.30;82.10
82991;DHT22;72806;50.832;4.864;2023-10-08T07:13:17;17.40;82.30
82991;DHT22;72806;50.832;4.864;2023-10-08T07:15:48;17.60;82.60
82991;DHT22;72806;50.832;4.864;2023-10-08T07:18:15;17.80;82.70
82991;DHT22;72806;50.832;4.864;2023-10-08T07:20:51;18.00;82.50
82991;DHT22;72806;50.832;4.864;2023-10-08T07:23:19;18.20;82.20
82991;DHT22;72806;50.832;4.864;2023-10-08T07:25:56;18.40;81.80
82991;DHT22;72806;50.832;4.864;2023-10-08T07:28:27;18.50;81.20
82991;DHT22;72806;50.832;4.864;2023-10-08T07:30:56;18.60;81.10
82991;DHT22;72806;50.832;4.864;2023-10-08T07:33:23;18.70;81.10
82991;DHT22;72806;50.832;4.864;2023-10-08T07:36:02;19.00;81.20
82991;DHT22;72806;50.832;4.864;2023-10-08T07:38:37;19.20;81.20
82991;DHT22;72806;50.832;4.864;2023-10-08T07:41:06;19.50;81.10
82991;DHT22;72806;50.832;4.864;2023-10-08T07:43:33;19.80;80.90
82991;DHT22;72806;50.832;4.864;2023-10-08T07:46:00;20.10;80.20
82991;DHT22;72806;50.832;4.864;2023-10-08T07:48:28;20.40;79.70
82991;DHT22;72806;50.832;4.864;2023-10-08T07:50:56;20.70;79.20
82991;DHT22;72806;50.832;4.864;2023-10-08T07:53:24;21.00;78.40
82991;DHT22;72806;50.832;4.864;2023-10-08T07:56:05;21.30;78.30
82991;DHT22;72806;50.832;4.864;2023-10-08T07:58:36;21.70;77.60
82991;DHT22;72806;50.832;4.864;2023-10-08T08:01:05;22.00;76.30
82991;DHT22;72806;50.832;4.864;2023-10-08T08:03:33;22.30;75.10
82991;DHT22;72806;50.832;4.864;2023-10-08T08:06:02;22.50;73.90
82991;DHT22;72806;50.832;4.864;2023-10-08T08:08:32;22.70;72.70
82991;DHT22;72806;50.832;4.864;2023-10-08T08:10:59;22.80;71.20
82991;DHT22;72806;50.832;4.864;2023-10-08T08:13:34;22.90;70.70
82991;DHT22;72806;50.832;4.864;2023-10-08T08:16:01;23.00;69.10
82991;DHT22;72806;50.832;4.864;2023-10-08T08:18:42;23.10;67.90
82991;DHT22;72806;50.832;4.864;2023-10-08T08:21:11;23.20;67.00
82991;DHT22;72806;50.832;4.864;2023-10-08T08:23:41;23.30;65.90
82991;DHT22;72806;50.832;4.864;2023-10-08T08:26:14;23.20;64.60
82991;DHT22;72806;50.832;4.864;2023-10-08T08:28:55;23.20;64.00
82991;DHT22;72806;50.832;4.864;2023-10-08T08:31:23;23.20;63.30
82991;DHT22;72806;50.832;4.864;2023-10-08T08:33:50;23.20;62.80
82991;DHT22;72806;50.832;4.864;2023-10-08T08:36:23;23.30;62.50
82991;DHT22;72806;50.832;4.864;2023-10-08T08:38:50;23.30;61.80
82991;DHT22;72806;50.832;4.864;2023-10-08T08:41:18;23.40;61.10
82991;DHT22;72806;50.832;4.864;2023-10-08T08:43:48;23.40;60.80
82991;DHT22;72806;50.832;4.864;2023-10-08T08:46:16;23.50;60.80
82991;DHT22;72806;50.832;4.864;2023-10-08T08:48:44;23.60;60.80
82991;DHT22;72806;50.832;4.864;2023-10-08T08:51:12;23.70;60.40
82991;DHT22;72806;50.832;4.864;2023-10-08T08:53:39;23.70;60.40
82991;DHT22;72806;50.832;4.864;2023-10-08T08:56:08;23.80;59.70
82991;DHT22;72806;50.832;4.864;2023-10-08T08:58:36;23.80;59.40
82991;DHT22;72806;50.832;4.864;2023-10-08T09:01:06;23.90;59.30
82991;DHT22;72806;50.832;4.864;2023-10-08T09:03:35;24.00;58.80
82991;DHT22;72806;50.832;4.864;2023-10-08T09:06:03;24.10;58.00
82991;DHT22;72806;50.832;4.864;2023-10-08T09:08:34;23.90;57.50
82991;DHT22;72806;50.832;4.864;2023-10-08T09:11:01;23.80;57.20
82991;DHT22;72806;50.832;4.864;2023-10-08T09:13:31;23.50;57.10
82991;DHT22;72806;50.832;4.864;2023-10-08T09:16:06;23.40;57.20
82991;DHT22;72806;50.832;4.864;2023-10-08T09:18:35;23.40;57.30
82991;DHT22;72806;50.832;4.864;2023-10-08T09:21:09;23.30;57.30
82991;DHT22;72806;50.832;4.864;2023-10-08T09:23:41;23.20;57.20
82991;DHT22;72806;50.832;4.864;2023-10-08T09:26:13;23.10;57.30
82991;DHT22;72806;50.832;4.864;2023-10-08T09:28:44;23.00;57.60
82991;DHT22;72806;50.832;4.864;2023-10-08T09:31:14;22.90;57.90
82991;DHT22;72806;50.832;4.864;2023-10-08T09:33:53;22.90;58.10
82991;DHT22;72806;50.832;4.864;2023-10-08T09:36:20;22.80;58.30
82991;DHT22;72806;50.832;4.864;2023-10-08T09:38:58;22.70;58.50
82991;DHT22;72806;50.832;4.864;2023-10-08T09:41:27;22.70;58.80
82991;DHT22;72806;50.832;4.864;2023-10-08T09:43:56;22.70;59.20
82991;DHT22;72806;50.832;4.864;2023-10-08T09:46:29;22.60;59.50
82991;DHT22;72806;50.832;4.864;2023-10-08T09:48:59;22.60;59.90
82991;DHT22;72806;50.832;4.864;2023-10-08T09:51:29;22.60;60.60
82991;DHT22;72806;50.832;4.864;2023-10-08T09:54:05;22.70;60.80
82991;DHT22;72806;50.832;4.864;2023-10-08T09:56:36;22.80;61.50
82991;DHT22;72806;50.832;4.864;2023-10-08T09:59:05;22.90;61.80
82991;DHT22;72806;50.832;4.864;2023-10-08T10:01:35;23.00;62.10
82991;DHT22;72806;50.832;4.864;2023-10-08T10:04:08;23.10;62.40
82991;DHT22;72806;50.832;4.864;2023-10-08T10:06:36;23.20;62.70
82991;DHT22;72806;50.832;4.864;2023-10-08T10:09:05;23.30;63.30
82991;DHT22;72806;50.832;4.864;2023-10-08T10:11:47;23.50;63.30
82991;DHT22;72806;50.832;4.864;2023-10-08T10:14:14;23.60;63.40
82991;DHT22;72806;50.832;4.864;2023-10-08T10:16:43;23.70;63.30
82991;DHT22;72806;50.832;4.864;2023-10-08T10:19:17;23.80;63.30
82991;DHT22;72806;50.832;4.864;2023-10-08T10:21:48;23.90;63.00
82991;DHT22;72806;50.832;4.864;2023-10-08T10:24:33;24.00;62.90
82991;DHT22;72806;50.832;4.864;2023-10-08T10:27:12;24.10;63.10
82991;DHT22;72806;50.832;4.864;2023-10-08T10:29:41;24.20;62.90
82991;DHT22;72806;50.832;4.864;2023-10-08T10:32:11;24.30;62.70
82991;DHT22;72806;50.832;4.864;2023-10-08T10:34:42;24.40;62.10
82991;DHT22;72806;50.832;4.864;2023-10-08T10:37:10;24.40;61.80
82991;DHT22;72806;50.832;4.864;2023-10-08T10:39:53;24.40;61.50
82991;DHT22;72806;50.832;4.864;2023-10-08T10:42:21;24.30;62.00
82991;DHT22;72806;50.832;4.864;2023-10-08T10:44:49;24.40;61.40
82991;DHT22;72806;50.832;4.864;2023-10-08T10:47:18;24.40;61.60
82991;DHT22;72806;50.832;4.864;2023-10-08T10:49:55;24.50;61.60
82991;DHT22;72806;50.832;4.864;2023-10-08T10:52:44;24.60;60.90
82991;DHT22;72806;50.832;4.864;2023-10-08T10:55:18;24.70;61.20
82991;DHT22;72806;50.832;4.864;2023-10-08T10:57:50;24.70;60.60
82991;DHT22;72806;50.832;4.864;2023-10-08T11:00:22;24.70;61.10
82991;DHT22;72806;50.832;4.864;2023-10-08T11:03:06;24.80;61.10
82991;DHT22;72806;50.832;4.864;2023-10-08T11:05:44;24.90;61.00
82991;DHT22;72806;50.832;4.864;2023-10-08T11:08:16;24.90;60.50
82991;DHT22;72806;50.832;4.864;2023-10-08T11:10:44;24.90;60.20
82991;DHT22;72806;50.832;4.864;2023-10-08T11:13:16;24.90;59.90
82991;DHT22;72806;50.832;4.864;2023-10-08T11:15:45;25.00;59.90
82991;DHT22;72806;50.832;4.864;2023-10-08T11:18:15;25.00;60.00
82991;DHT22;72806;50.832;4.864;2023-10-08T11:20:44;25.10;59.50
82991;DHT22;72806;50.832;4.864;2023-10-08T11:25:55;25.20;59.50
82991;DHT22;72806;50.832;4.864;2023-10-08T11:28:26;25.20;59.40
82991;DHT22;72806;50.832;4.864;2023-10-08T11:30:54;25.20;59.20
82991;DHT22;72806;50.832;4.864;2023-10-08T11:33:25;25.20;59.30
82991;DHT22;72806;50.832;4.864;2023-10-08T11:36:01;25.20;59.00
82991;DHT22;72806;50.832;4.864;2023-10-08T11:38:38;25.30;59.10
82991;DHT22;72806;50.832;4.864;2023-10-08T11:41:12;25.30;59.00
82991;DHT22;72806;50.832;4.864;2023-10-08T11:43:51;25.30;58.70
82991;DHT22;72806;50.832;4.864;2023-10-08T11:46:23;25.30;58.30
82991;DHT22;72806;50.832;4.864;2023-10-08T11:48:52;25.30;58.50
82991;DHT22;72806;50.832;4.864;2023-10-08T11:51:24;25.30;58.30
82991;DHT22;72806;50.832;4.864;2023-10-08T11:53:51;25.30;58.40
82991;DHT22;72806;50.832;4.864;2023-10-08T11:56:19;25.40;58.20
82991;DHT22;72806;50.832;4.864;2023-10-08T11:58:49;25.40;58.10
82991;DHT22;72806;50.832;4.864;2023-10-08T12:01:17;25.40;58.00
82991;DHT22;72806;50.832;4.864;2023-10-08T12:03:46;25.40;57.80
82991;DHT22;72806;50.832;4.864;2023-10-08T12:06:15;25.40;57.60
82991;DHT22;72806;50.832;4.864;2023-10-08T12:08:46;25.30;57.60
82991;DHT22;72806;50.832;4.864;2023-10-08T12:11:13;25.30;57.40
82991;DHT22;72806;50.832;4.864;2023-10-08T12:13:41;25.30;57.60
82991;DHT22;72806;50.832;4.864;2023-10-08T12:16:12;25.40;57.40
82991;DHT22;72806;50.832;4.864;2023-10-08T12:18:44;25.40;57.20
82991;DHT22;72806;50.832;4.864;2023-10-08T12:21:14;25.40;57.40
82991;DHT22;72806;50.832;4.864;2023-10-08T12:23:44;25.40;57.50
82991;DHT22;72806;50.832;4.864;2023-10-08T12:26:13;25.40;57.50
82991;DHT22;72806;50.832;4.864;2023-10-08T12:28:45;25.50;57.50
82991;DHT22;72806;50.832;4.864;2023-10-08T12:31:14;25.50;57.30
82991;DHT22;72806;50.832;4.864;2023-10-08T12:33:42;25.50;57.20
82991;DHT22;72806;50.832;4.864;2023-10-08T12:36:10;25.50;56.60
82991;DHT22;72806;50.832;4.864;2023-10-08T12:38:39;25.50;56.40
82991;DHT22;72806;50.832;4.864;2023-10-08T12:41:08;25.50;56.60
82991;DHT22;72806;50.832;4.864;2023-10-08T12:43:38;25.50;56.60
82991;DHT22;72806;50.832;4.864;2023-10-08T12:46:08;25.50;56.60
82991;DHT22;72806;50.832;4.864;2023-10-08T12:48:41;25.50;56.20
82991;DHT22;72806;50.832;4.864;2023-10-08T12:51:13;25.50;56.30
82991;DHT22;72806;50.832;4.864;2023-10-08T12:53:41;25.60;56.20
82991;DHT22;72806;50.832;4.864;2023-10-08T12:56:17;25.60;55.90
82991;DHT22;72806;50.832;4.864;2023-10-08T12:58:47;25.70;55.90
82991;DHT22;72806;50.832;4.864;2023-10-08T13:01:19;25.70;55.60
82991;DHT22;72806;50.832;4.864;2023-10-08T13:03:46;25.70;55.60
82991;DHT22;72806;50.832;4.864;2023-10-08T13:06:15;25.80;55.40
82991;DHT22;72806;50.832;4.864;2023-10-08T13:08:48;25.80;55.50
82991;DHT22;72806;50.832;4.864;2023-10-08T13:11:19;25.80;55.30
82991;DHT22;72806;50.832;4.864;2023-10-08T13:13:51;25.80;55.00
82991;DHT22;72806;50.832;4.864;2023-10-08T13:16:18;25.70;54.90
82991;DHT22;72806;50.832;4.864;2023-10-08T13:18:47;25.60;54.80
82991;DHT22;72806;50.832;4.864;2023-10-08T13:21:14;25.60;55.00
82991;DHT22;72806;50.832;4.864;2023-10-08T13:23:41;25.60;55.10
82991;DHT22;72806;50.832;4.864;2023-10-08T13:26:08;25.50;55.10
82991;DHT22;72806;50.832;4.864;2023-10-08T13:28:36;25.50;55.00
82991;DHT22;72806;50.832;4.864;2023-10-08T13:31:05;25.40;55.10
82991;DHT22;72806;50.832;4.864;2023-10-08T13:33:36;25.30;55.10
82991;DHT22;72806;50.832;4.864;2023-10-08T13:36:06;25.30;55.10
82991;DHT22;72806;50.832;4.864;2023-10-08T13:38:35;25.30;55.10
82991;DHT22;72806;50.832;4.864;2023-10-08T13:41:02;25.30;55.10
82991;DHT22;72806;50.832;4.864;2023-10-08T13:43:30;25.30;55.20
82991;DHT22;72806;50.832;4.864;2023-10-08T13:46:05;25.30;55.20
82991;DHT22;72806;50.832;4.864;2023-10-08T13:48:36;25.30;55.10
82991;DHT22;72806;50.832;4.864;2023-10-08T13:51:04;25.30;55.10
82991;DHT22;72806;50.832;4.864;2023-10-08T13:53:31;25.30;55.00
82991;DHT22;72806;50.832;4.864;2023-10-08T13:56:00;25.40;55.20
82991;DHT22;72806;50.832;4.864;2023-10-08T13:58:30;25.40;55.20
82991;DHT22;72806;50.832;4.864;2023-10-08T14:01:00;25.50;55.30
82991;DHT22;72806;50.832;4.864;2023-10-08T14:03:29;25.50;55.20
82991;DHT22;72806;50.832;4.864;2023-10-08T14:05:57;25.50;55.00
82991;DHT22;72806;50.832;4.864;2023-10-08T14:08:28;25.50;55.20
82991;DHT22;72806;50.832;4.864;2023-10-08T14:10:56;25.50;55.30
82991;DHT22;72806;50.832;4.864;2023-10-08T14:13:29;25.60;55.10
82991;DHT22;72806;50.832;4.864;2023-10-08T14:15:57;25.60;55.10
82991;DHT22;72806;50.832;4.864;2023-10-08T14:18:24;25.60;55.10
82991;DHT22;72806;50.832;4.864;2023-10-08T14:20:55;25.70;55.20
82991;DHT22;72806;50.832;4.864;2023-10-08T14:23:23;25.80;54.80
82991;DHT22;72806;50.832;4.864;2023-10-08T14:25:52;25.80;54.80
82991;DHT22;72806;50.832;4.864;2023-10-08T14:28:29;25.80;54.60
82991;DHT22;72806;50.832;4.864;2023-10-08T14:31:08;25.90;54.70
82991;DHT22;72806;50.832;4.864;2023-10-08T14:33:41;25.90;54.40
82991;DHT22;72806;50.832;4.864;2023-10-08T14:36:23;25.90;54.40
82991;DHT22;72806;50.832;4.864;2023-10-08T14:39:07;26.00;54.20
82991;DHT22;72806;50.832;4.864;2023-10-08T14:41:52;26.10;54.10
82991;DHT22;72806;50.832;4.864;2023-10-08T14:44:36;26.10;54.20
82991;DHT22;72806;50.832;4.864;2023-10-08T14:47:04;26.20;53.90
82991;DHT22;72806;50.832;4.864;2023-10-08T14:49:31;26.20;53.70
82991;DHT22;72806;50.832;4.864;2023-10-08T14:52:00;26.10;53.70
82991;DHT22;72806;50.832;4.864;2023-10-08T14:54:29;26.10;53.60
82991;DHT22;72806;50.832;4.864;2023-10-08T14:56:59;26.10;53.60
82991;DHT22;72806;50.832;4.864;2023-10-08T14:59:28;26.00;53.30
82991;DHT22;72806;50.832;4.864;2023-10-08T15:01:56;26.00;53.30
82991;DHT22;72806;50.832;4.864;2023-10-08T15:04:23;26.00;53.20
82991;DHT22;72806;50.832;4.864;2023-10-08T15:06:51;25.90;53.20
82991;DHT22;72806;50.832;4.864;2023-10-08T15:09:20;25.90;53.30
82991;DHT22;72806;50.832;4.864;2023-10-08T15:11:49;25.80;53.40
82991;DHT22;72806;50.832;4.864;2023-10-08T15:14:17;25.80;53.30
82991;DHT22;72806;50.832;4.864;2023-10-08T15:16:45;25.80;53.30
82991;DHT22;72806;50.832;4.864;2023-10-08T15:19:18;25.90;53.10
82991;DHT22;72806;50.832;4.864;2023-10-08T15:21:45;25.80;53.00
82991;DHT22;72806;50.832;4.864;2023-10-08T15:24:16;25.80;52.90
82991;DHT22;72806;50.832;4.864;2023-10-08T15:26:44;25.70;52.70
82991;DHT22;72806;50.832;4.864;2023-10-08T15:29:13;25.70;52.60
82991;DHT22;72806;50.832;4.864;2023-10-08T15:31:40;25.70;52.80
82991;DHT22;72806;50.832;4.864;2023-10-08T15:34:08;25.60;52.60
82991;DHT22;72806;50.832;4.864;2023-10-08T15:36:38;25.60;52.30
82991;DHT22;72806;50.832;4.864;2023-10-08T15:39:05;25.60;52.30
82991;DHT22;72806;50.832;4.864;2023-10-08T15:41:35;25.60;52.40
82991;DHT22;72806;50.832;4.864;2023-10-08T15:44:04;25.50;52.40
82991;DHT22;72806;50.832;4.864;2023-10-08T15:46:31;25.50;52.40
82991;DHT22;72806;50.832;4.864;2023-10-08T15:49:01;25.50;52.40
82991;DHT22;72806;50.832;4.864;2023-10-08T15:51:29;25.40;52.40
82991;DHT22;72806;50.832;4.864;2023-10-08T15:53:57;25.30;52.40
82991;DHT22;72806;50.832;4.864;2023-10-08T15:56:26;25.30;52.50
82991;DHT22;72806;50.832;4.864;2023-10-08T15:58:53;25.20;52.60
82991;DHT22;72806;50.832;4.864;2023-10-08T16:01:21;25.20;52.60